createdAt,value
2022-12-25T00:00:37.546Z,101004.06
2022-12-25T00:03:40.614Z,101019.50
2022-12-25T00:06:43.273Z,101015.75
2022-12-25T00:09:45.825Z,101022.25
2022-12-25T00:12:47.958Z,101018.91
2022-12-25T00:15:50.184Z,101023.03
2022-12-25T00:18:53.350Z,101010.59
2022-12-25T00:21:55.300Z,101013.31
2022-12-25T00:24:57.330Z,101026.25
2022-12-25T00:27:59.347Z,101039.59
2022-12-25T00:31:05.252Z,101042.75
2022-12-25T00:34:07.362Z,101053.91
2022-12-25T00:37:09.350Z,101060.63
2022-12-25T00:40:14.224Z,101063.78
2022-12-25T00:43:16.145Z,101050.78
2022-12-25T00:46:18.468Z,101063.91
2022-12-25T00:49:26.027Z,101059.53
2022-12-25T00:52:28.015Z,101062.03
2022-12-25T00:55:31.288Z,101080.81
2022-12-25T00:58:35.135Z,101087.34
2022-12-25T01:01:38.284Z,101062.72
2022-12-25T01:04:40.423Z,101071.34
2022-12-25T01:07:42.418Z,101071.66
2022-12-25T01:10:44.464Z,101069.66
2022-12-25T01:13:46.474Z,101078.34
2022-12-25T01:16:48.524Z,101090.34
2022-12-25T01:19:50.827Z,101079.34
2022-12-25T01:22:53.383Z,101080.38
2022-12-25T01:25:55.297Z,101082.38
2022-12-25T01:28:57.759Z,101094.16
2022-12-25T01:31:59.764Z,101101.84
2022-12-25T01:35:01.870Z,101086.50
2022-12-25T01:38:04.012Z,101086.28
2022-12-25T01:41:06.212Z,101089.41
2022-12-25T01:44:28.424Z,101112.19
2022-12-25T01:47:30.497Z,101106.97
2022-12-25T01:50:34.065Z,101093.00
2022-12-25T01:53:37.457Z,101096.69
2022-12-25T01:56:42.016Z,101086.28
2022-12-25T01:59:44.297Z,101078.34
2022-12-25T02:02:46.957Z,101086.09
2022-12-25T02:05:51.594Z,101094.66
2022-12-25T02:08:53.784Z,101086.56
2022-12-25T02:11:58.561Z,101084.13
2022-12-25T02:15:22.325Z,101091.47
2022-12-25T02:18:56.182Z,101096.94
2022-12-25T02:22:13.379Z,101093.19
2022-12-25T02:25:49.924Z,101092.41
2022-12-25T02:29:01.716Z,101096.38
2022-12-25T02:32:25.432Z,101106.41
2022-12-25T02:35:31.844Z,101113.47
2022-12-25T02:38:59.761Z,101109.94
2022-12-25T02:42:07.008Z,101113.84
2022-12-25T02:45:28.116Z,101121.22
2022-12-25T02:48:52.973Z,101118.81
2022-12-25T02:52:17.992Z,101113.97
2022-12-25T02:55:43.385Z,101110.22
2022-12-25T02:59:06.266Z,101123.81
2022-12-25T03:02:27.469Z,101125.47
2022-12-25T03:05:50.528Z,101127.78
2022-12-25T03:09:17.199Z,101137.72
2022-12-25T03:12:24.977Z,101145.16
2022-12-25T03:15:45.320Z,101156.53
2022-12-25T03:18:47.643Z,101158.31
2022-12-25T03:22:08.692Z,101140.34
2022-12-25T03:25:29.680Z,101146.50
2022-12-25T03:28:31.798Z,101148.06
2022-12-25T03:31:36.613Z,101156.06
2022-12-25T03:35:24.433Z,101151.38
2022-12-25T03:38:51.804Z,101164.81
2022-12-25T03:42:19.437Z,101163.16
2022-12-25T03:45:53.538Z,101174.84
2022-12-25T03:49:24.906Z,101175.94
2022-12-25T03:52:47.733Z,101181.97
2022-12-25T03:56:10.007Z,101185.28
2022-12-25T03:59:31.020Z,101187.03
2022-12-25T04:02:51.916Z,101186.22
2022-12-25T04:06:12.670Z,101185.75
2022-12-25T04:09:33.267Z,101173.56
2022-12-25T04:12:54.029Z,101169.81
2022-12-25T04:16:15.112Z,101154.91
2022-12-25T04:19:35.748Z,101166.72
2022-12-25T04:22:56.517Z,101171.44
2022-12-25T04:26:21.701Z,101175.47
2022-12-25T04:29:42.155Z,101177.81
2022-12-25T04:33:03.045Z,101187.19
2022-12-25T04:36:12.436Z,101184.56
2022-12-25T04:39:14.669Z,101190.22
2022-12-25T04:42:17.648Z,101168.25
2022-12-25T04:45:21.949Z,101165.41
2022-12-25T04:48:24.972Z,101161.41
2022-12-25T04:51:27.142Z,101164.59
2022-12-25T04:54:29.106Z,101170.25
2022-12-25T04:57:31.314Z,101178.78
2022-12-25T05:00:33.416Z,101178.56
2022-12-25T05:03:35.685Z,101177.34
2022-12-25T05:06:37.869Z,101185.50
2022-12-25T05:09:41.857Z,101197.66
2022-12-25T05:12:44.122Z,101185.97
2022-12-25T05:15:46.321Z,101203.34
2022-12-25T05:18:50.124Z,101199.56
2022-12-25T05:21:57.369Z,101199.78
2022-12-25T05:24:59.749Z,101200.94
2022-12-25T05:28:01.703Z,101190.78
2022-12-25T05:31:03.829Z,101187.22
2022-12-25T05:34:06.087Z,101186.75
2022-12-25T05:37:08.311Z,101199.84
2022-12-25T05:40:11.141Z,101197.59
2022-12-25T05:43:13.395Z,101208.22
2022-12-25T05:46:15.494Z,101206.78
2022-12-25T05:49:17.800Z,101207.13
2022-12-25T05:52:20.366Z,101222.34
2022-12-25T05:55:22.542Z,101207.63
2022-12-25T05:58:24.570Z,101217.69
2022-12-25T06:01:28.732Z,101228.38
2022-12-25T06:04:31.025Z,101220.06
2022-12-25T06:07:36.861Z,101216.81
2022-12-25T06:10:39.033Z,101214.94
2022-12-25T06:13:41.486Z,101211.47
2022-12-25T06:16:43.841Z,101209.78
2022-12-25T06:19:45.789Z,101207.06
2022-12-25T06:22:47.964Z,101208.84
2022-12-25T06:25:50.314Z,101208.56
2022-12-25T06:28:53.057Z,101214.22
2022-12-25T06:31:57.466Z,101215.78
2022-12-25T06:34:59.452Z,101225.94
2022-12-25T06:38:01.496Z,101239.75
2022-12-25T06:41:12.842Z,101243.69
2022-12-25T06:44:14.892Z,101237.91
2022-12-25T06:47:17.275Z,101250.06
2022-12-25T06:50:19.490Z,101254.50
2022-12-25T06:53:21.387Z,101250.03
2022-12-25T06:56:27.294Z,101251.44
2022-12-25T06:59:30.000Z,101260.06
2022-12-25T07:02:33.481Z,101275.69
2022-12-25T07:05:35.545Z,101279.16
2022-12-25T07:08:37.741Z,101282.00
2022-12-25T07:11:39.824Z,101297.84
2022-12-25T07:14:42.561Z,101302.88
2022-12-25T07:17:44.613Z,101299.06
2022-12-25T07:20:46.514Z,101310.31
2022-12-25T07:23:50.045Z,101318.03
2022-12-25T07:26:52.398Z,101325.56
2022-12-25T07:29:54.485Z,101314.00
2022-12-25T07:32:57.121Z,101317.94
2022-12-25T07:35:59.370Z,101320.50
2022-12-25T07:39:01.428Z,101322.03
2022-12-25T07:42:03.602Z,101326.19
2022-12-25T07:45:06.248Z,101331.28
2022-12-25T07:48:11.980Z,101330.56
2022-12-25T07:51:18.953Z,101325.06
2022-12-25T07:54:21.301Z,101323.66
2022-12-25T07:57:23.365Z,101334.25
2022-12-25T08:00:29.848Z,101333.16
2022-12-25T08:03:33.790Z,101348.31
2022-12-25T08:06:36.395Z,101340.72
2022-12-25T08:09:39.064Z,101344.28
2022-12-25T08:12:41.046Z,101346.09
2022-12-25T08:15:43.167Z,101361.47
2022-12-25T08:18:45.252Z,101364.56
2022-12-25T08:21:47.067Z,101363.63
2022-12-25T08:24:49.015Z,101361.41
2022-12-25T08:27:51.135Z,101365.28
2022-12-25T08:30:53.256Z,101365.19
2022-12-25T08:33:58.332Z,101373.25
2022-12-25T08:37:00.368Z,101368.50
2022-12-25T08:40:02.523Z,101371.19
2022-12-25T08:43:05.218Z,101372.34
2022-12-25T08:46:07.612Z,101378.00
2022-12-25T08:49:09.827Z,101379.72
2022-12-25T08:52:12.036Z,101371.06
2022-12-25T08:55:14.264Z,101373.97
2022-12-25T08:58:16.992Z,101371.88
2022-12-25T09:01:19.533Z,101379.22
2022-12-25T09:04:22.244Z,101381.84
2022-12-25T09:07:24.380Z,101379.13
2022-12-25T09:10:26.832Z,101365.38
2022-12-25T09:13:29.196Z,101381.19
2022-12-25T09:16:31.299Z,101364.75
2022-12-25T09:19:34.238Z,101370.69
2022-12-25T09:22:36.771Z,101381.66
2022-12-25T09:25:39.106Z,101380.28
2022-12-25T09:28:50.213Z,101374.25
2022-12-25T09:31:53.765Z,101377.78
2022-12-25T09:34:55.919Z,101386.66
2022-12-25T09:37:58.270Z,101380.03
2022-12-25T09:41:26.638Z,101375.28
2022-12-25T09:44:34.213Z,101380.94
2022-12-25T09:47:40.430Z,101375.50
2022-12-25T09:50:58.967Z,101380.47
2022-12-25T09:54:11.877Z,101378.38
2022-12-25T09:57:17.158Z,101381.13
2022-12-25T10:00:22.643Z,101379.84
2022-12-25T10:03:44.350Z,101370.97
2022-12-25T10:07:14.536Z,101378.81
2022-12-25T10:10:50.985Z,101375.88
2022-12-25T10:13:52.939Z,101369.81
2022-12-25T10:17:32.935Z,101367.03
2022-12-25T10:20:46.556Z,101354.88
2022-12-25T10:24:03.427Z,101355.00
2022-12-25T10:27:15.409Z,101361.06
2022-12-25T10:30:27.426Z,101352.69
2022-12-25T10:33:30.146Z,101343.66
2022-12-25T10:36:32.968Z,101352.09
2022-12-25T10:39:36.075Z,101350.88
2022-12-25T10:42:44.063Z,101340.44
2022-12-25T10:45:47.876Z,101345.09
2022-12-25T10:48:56.875Z,101344.59
2022-12-25T10:52:00.321Z,101340.81
2022-12-25T10:55:12.632Z,101342.63
2022-12-25T10:58:20.834Z,101340.06
2022-12-25T11:01:29.206Z,101339.81
2022-12-25T11:04:35.981Z,101339.00
2022-12-25T11:07:51.287Z,101338.34
2022-12-25T11:10:58.554Z,101333.38
2022-12-25T11:14:02.879Z,101329.13
2022-12-25T11:17:18.259Z,101315.63
2022-12-25T11:20:21.779Z,101320.31
2022-12-25T11:23:25.946Z,101304.25
2022-12-25T11:26:30.612Z,101309.69
2022-12-25T11:29:50.708Z,101319.91
2022-12-25T11:32:56.302Z,101316.34
2022-12-25T11:36:03.056Z,101308.38
2022-12-25T11:39:37.065Z,101310.00
2022-12-25T11:42:44.727Z,101305.31
2022-12-25T11:46:16.400Z,101294.59
2022-12-25T11:49:21.769Z,101290.78
2022-12-25T11:52:26.017Z,101296.56
2022-12-25T11:55:40.201Z,101310.66
2022-12-25T11:58:43.646Z,101310.25
2022-12-25T12:01:51.167Z,101294.59
2022-12-25T12:05:07.025Z,101288.56
2022-12-25T12:08:11.784Z,101288.81
2022-12-25T12:11:53.187Z,101295.59
2022-12-25T12:15:26.952Z,101283.31
2022-12-25T12:18:34.498Z,101285.13
2022-12-25T12:21:36.890Z,101294.28
2022-12-25T12:24:42.675Z,101301.38
2022-12-25T12:27:45.472Z,101304.81
2022-12-25T12:30:59.121Z,101307.38
2022-12-25T12:34:01.115Z,101303.81
2022-12-25T12:37:18.651Z,101312.94
2022-12-25T12:40:52.093Z,101301.25
2022-12-25T12:44:03.051Z,101301.63
2022-12-25T12:47:05.116Z,101303.97
2022-12-25T12:50:08.310Z,101301.53
2022-12-25T12:53:16.533Z,101304.84
2022-12-25T12:56:20.510Z,101305.25
2022-12-25T12:59:23.681Z,101308.31
2022-12-25T13:02:59.173Z,101307.84
2022-12-25T13:06:10.930Z,101315.16
2022-12-25T13:09:25.102Z,101313.22
2022-12-25T13:12:27.263Z,101325.28
2022-12-25T13:15:34.462Z,101324.91
2022-12-25T13:18:39.851Z,101315.78
2022-12-25T13:21:52.630Z,101318.78
2022-12-25T13:24:57.583Z,101313.94
2022-12-25T13:27:59.627Z,101314.59
2022-12-25T13:31:07.418Z,101310.56
2022-12-25T13:34:41.081Z,101321.50
2022-12-25T13:37:44.486Z,101319.78
2022-12-25T13:41:14.031Z,101312.53
2022-12-25T13:44:24.490Z,101313.03
2022-12-25T13:47:55.822Z,101315.97
2022-12-25T13:51:00.523Z,101324.25
2022-12-25T13:54:07.376Z,101329.72
2022-12-25T13:57:13.422Z,101322.66
2022-12-25T14:00:32.382Z,101325.00
2022-12-25T14:03:41.750Z,101333.78
2022-12-25T14:06:44.394Z,101314.75
2022-12-25T14:09:48.840Z,101326.63
2022-12-25T14:12:54.559Z,101327.66
2022-12-25T14:15:57.598Z,101318.97
2022-12-25T14:19:02.276Z,101322.75
2022-12-25T14:22:16.901Z,101329.63
2022-12-25T14:25:21.054Z,101331.50
2022-12-25T14:28:33.243Z,101333.97
2022-12-25T14:31:38.608Z,101327.78
2022-12-25T14:34:42.482Z,101339.81
2022-12-25T14:37:44.978Z,101341.91
2022-12-25T14:40:46.954Z,101337.00
2022-12-25T14:43:56.065Z,101343.88
2022-12-25T14:47:19.493Z,101347.22
2022-12-25T14:50:32.369Z,101344.84
2022-12-25T14:53:48.515Z,101344.44
2022-12-25T14:56:53.153Z,101348.56
2022-12-25T14:59:58.175Z,101344.00
2022-12-25T15:03:00.895Z,101345.00
2022-12-25T15:06:19.295Z,101353.84
2022-12-25T15:09:22.065Z,101356.31
2022-12-25T15:12:24.697Z,101346.59
2022-12-25T15:15:27.332Z,101355.56
2022-12-25T15:18:35.551Z,101353.63
2022-12-25T15:21:37.943Z,101352.38
2022-12-25T15:24:40.065Z,101351.00
2022-12-25T15:27:42.732Z,101349.06
2022-12-25T15:30:45.591Z,101351.94
2022-12-25T15:33:48.616Z,101350.16
2022-12-25T15:36:54.033Z,101348.66
2022-12-25T15:39:57.421Z,101350.31
2022-12-25T15:42:59.867Z,101351.13
2022-12-25T15:46:02.359Z,101369.59
2022-12-25T15:49:04.590Z,101365.72
2022-12-25T15:52:08.145Z,101361.06
2022-12-25T15:55:10.861Z,101358.69
2022-12-25T15:58:13.148Z,101361.44
2022-12-25T16:01:20.059Z,101359.78
2022-12-25T16:04:23.900Z,101359.50
2022-12-25T16:07:25.969Z,101361.56
2022-12-25T16:10:32.140Z,101365.16
2022-12-25T16:13:37.683Z,101361.31
2022-12-25T16:16:40.214Z,101362.00
2022-12-25T16:19:49.567Z,101352.94
2022-12-25T16:22:51.487Z,101362.84
2022-12-25T16:25:53.672Z,101351.16
2022-12-25T16:28:55.922Z,101344.41
2022-12-25T16:31:58.460Z,101340.41
2022-12-25T16:35:00.634Z,101351.56
2022-12-25T16:38:03.483Z,101339.16
2022-12-25T16:41:05.838Z,101339.31
2022-12-25T16:44:10.275Z,101337.66
2022-12-25T16:47:12.433Z,101339.03
2022-12-25T16:50:15.488Z,101343.72
2022-12-25T16:53:17.444Z,101343.72
2022-12-25T16:56:21.321Z,101341.09
2022-12-25T16:59:23.395Z,101334.34
2022-12-25T17:02:27.307Z,101335.75
2022-12-25T17:05:29.410Z,101330.38
2022-12-25T17:08:31.670Z,101333.94
2022-12-25T17:11:33.970Z,101330.78
2022-12-25T17:14:36.475Z,101333.13
2022-12-25T17:17:38.901Z,101332.28
2022-12-25T17:20:49.618Z,101337.38
2022-12-25T17:23:55.332Z,101333.69
2022-12-25T17:27:00.573Z,101335.03
2022-12-25T17:30:02.789Z,101335.19
2022-12-25T17:33:05.541Z,101329.69
2022-12-25T17:36:11.233Z,101323.50
2022-12-25T17:39:13.995Z,101314.00
2022-12-25T17:42:15.951Z,101304.25
2022-12-25T17:45:18.986Z,101299.69
2022-12-25T17:48:21.599Z,101297.50
2022-12-25T17:51:26.031Z,101301.88
2022-12-25T17:54:28.583Z,101304.22
2022-12-25T17:57:30.505Z,101305.31
2022-12-25T18:00:32.762Z,101306.00
2022-12-25T18:03:36.882Z,101310.91
2022-12-25T18:06:39.277Z,101315.84
2022-12-25T18:09:41.785Z,101312.09
2022-12-25T18:12:45.015Z,101308.97
2022-12-25T18:15:47.487Z,101308.97
2022-12-25T18:18:52.604Z,101319.53
2022-12-25T18:21:55.071Z,101307.81
2022-12-25T18:24:57.154Z,101310.25
2022-12-25T18:28:02.330Z,101300.69
2022-12-25T18:31:21.100Z,101296.44
2022-12-25T18:34:23.679Z,101299.91
2022-12-25T18:37:28.083Z,101294.13
2022-12-25T18:40:30.513Z,101294.53
2022-12-25T18:43:51.355Z,101297.06
2022-12-25T18:46:55.226Z,101287.97
2022-12-25T18:49:57.302Z,101294.72
2022-12-25T18:53:00.374Z,101292.22
2022-12-25T18:56:11.954Z,101293.63
2022-12-25T18:59:14.716Z,101282.34
2022-12-25T19:02:18.370Z,101280.97
2022-12-25T19:05:21.375Z,101285.22
2022-12-25T19:08:23.637Z,101278.78
2022-12-25T19:11:25.781Z,101278.22
2022-12-25T19:14:29.812Z,101272.19
2022-12-25T19:17:51.095Z,101260.47
2022-12-25T19:20:53.672Z,101269.41
2022-12-25T19:23:56.374Z,101274.09
2022-12-25T19:26:58.444Z,101273.69
2022-12-25T19:30:00.929Z,101275.75
2022-12-25T19:33:03.759Z,101265.28
2022-12-25T19:36:12.294Z,101269.44
2022-12-25T19:39:15.554Z,101273.25
2022-12-25T19:42:19.409Z,101283.19
2022-12-25T19:45:21.913Z,101291.28
2022-12-25T19:48:24.408Z,101290.34
2022-12-25T19:51:29.383Z,101273.13
2022-12-25T19:54:31.952Z,101265.56
2022-12-25T19:57:34.206Z,101270.09
2022-12-25T20:00:36.455Z,101262.69
2022-12-25T20:03:45.923Z,101244.25
2022-12-25T20:06:50.289Z,101226.63
2022-12-25T20:09:52.313Z,101214.09
2022-12-25T20:12:55.719Z,101213.03
2022-12-25T20:16:01.920Z,101223.19
2022-12-25T20:19:05.144Z,101223.88
2022-12-25T20:22:07.299Z,101228.69
2022-12-25T20:25:11.221Z,101232.81
2022-12-25T20:28:13.239Z,101243.72
2022-12-25T20:31:17.769Z,101239.16
2022-12-25T20:34:20.138Z,101233.09
2022-12-25T20:37:22.274Z,101235.59
2022-12-25T20:40:25.235Z,101234.19
2022-12-25T20:43:27.795Z,101227.03
2022-12-25T20:46:30.258Z,101229.25
2022-12-25T20:49:33.030Z,101236.13
2022-12-25T20:52:35.084Z,101226.91
2022-12-25T20:55:37.236Z,101224.56
2022-12-25T20:58:40.115Z,101220.59
2022-12-25T21:01:42.589Z,101220.59
2022-12-25T21:04:46.661Z,101229.25
2022-12-25T21:07:53.611Z,101238.47
2022-12-25T21:11:00.757Z,101228.28
2022-12-25T21:14:03.173Z,101222.53
2022-12-25T21:17:05.212Z,101215.09
2022-12-25T21:20:08.062Z,101207.09
2022-12-25T21:23:10.044Z,101220.44
2022-12-25T21:26:15.978Z,101218.53
2022-12-25T21:29:18.116Z,101222.91
2022-12-25T21:32:38.620Z,101210.78
2022-12-25T21:35:40.790Z,101213.28
2022-12-25T21:38:42.905Z,101211.63
2022-12-25T21:41:45.157Z,101208.09
2022-12-25T21:44:48.440Z,101206.41
2022-12-25T21:47:59.948Z,101202.56
2022-12-25T21:51:25.907Z,101202.84
2022-12-25T21:54:27.859Z,101204.50
2022-12-25T21:57:29.880Z,101214.00
2022-12-25T22:00:32.052Z,101218.94
2022-12-25T22:03:34.100Z,101224.16
2022-12-25T22:06:55.284Z,101229.09
2022-12-25T22:09:57.577Z,101231.28
2022-12-25T22:13:19.288Z,101233.91
2022-12-25T22:16:39.836Z,101224.03
2022-12-25T22:19:45.122Z,101226.50
2022-12-25T22:22:47.214Z,101224.00
2022-12-25T22:25:49.141Z,101226.94
2022-12-25T22:28:51.094Z,101216.59
2022-12-25T22:31:53.056Z,101203.38
2022-12-25T22:34:55.087Z,101200.91
2022-12-25T22:37:57.131Z,101203.13
2022-12-25T22:40:59.381Z,101211.34
2022-12-25T22:44:18.038Z,101217.41
2022-12-25T22:47:20.635Z,101215.47
2022-12-25T22:50:22.890Z,101222.38
2022-12-25T22:53:25.287Z,101226.50
2022-12-25T22:56:27.347Z,101216.03
2022-12-25T22:59:29.508Z,101205.28
2022-12-25T23:02:31.698Z,101206.81
2022-12-25T23:05:34.512Z,101195.41
2022-12-25T23:08:37.184Z,101187.25
2022-12-25T23:11:40.057Z,101193.19
2022-12-25T23:14:42.107Z,101206.66
2022-12-25T23:18:02.686Z,101204.16
2022-12-25T23:21:23.403Z,101199.75
2022-12-25T23:24:44.239Z,101203.09
2022-12-25T23:27:46.295Z,101208.88
2022-12-25T23:30:48.594Z,101208.91
2022-12-25T23:33:50.798Z,101200.91
2022-12-25T23:36:53.058Z,101193.91
2022-12-25T23:39:55.316Z,101186.22
2022-12-25T23:42:57.372Z,101177.41
2022-12-25T23:45:59.561Z,101186.63
2022-12-25T23:49:01.796Z,101188.13
2022-12-25T23:52:03.862Z,101180.44
2022-12-25T23:55:06.477Z,101178.66
2022-12-25T23:58:08.645Z,101179.06
